Time;durP1;ratioP1;P1;durP2;ratioP2;P2;SDS_P1;SDS_P2;PMS_P1;PMS_P2;Temp;Humidity;BMP_temperature;BMP_pressure;BME280_temperature;BME280_humidity;BME280_pressure;Samples;Min_cycle;Max_cycle;Signal;HPM_P1;HPM_P2
2023/03/29 00:00:34;;;;;;;1999.90;999.90;;;6.70;1.00;;;;;;4924171;29;20063;-83
2023/03/29 00:03:02;;;;;;;1999.90;787.55;;;;;;;;;;4941188;29;20135;-83
2023/03/29 00:05:27;;;;;;;1999.90;999.90;;;6.70;1.00;;;;;;4952523;29;20046;-83
2023/03/29 00:07:53;;;;;;;1999.90;843.95;;;6.80;1.00;;;;;;4952481;29;20051;-83
2023/03/29 00:10:22;;;;;;;1999.90;999.90;;;6.80;1.00;;;;;;4953100;28;20061;-83
2023/03/29 00:12:51;;;;;;;1999.90;849.85;;;;;;;;;;4943178;28;20048;-84
2023/03/29 00:15:17;;;;;;;1999.90;744.70;;;8.00;1.00;;;;;;4953828;28;20373;-83
2023/03/29 00:17:43;;;;;;;1999.90;999.17;;;7.40;1.00;;;;;;4939004;29;20083;-84
2023/03/29 00:20:09;;;;;;;1999.90;996.17;;;6.80;1.00;;;;;;4934517;29;20412;-84
2023/03/29 00:22:40;;;;;;;1999.90;430.92;;;6.70;1.00;;;;;;4935089;29;20039;-85
2023/03/29 00:25:07;;;;;;;1999.90;996.75;;;8.10;1.00;;;;;;4953097;28;20087;-85
2023/03/29 00:27:33;;;;;;;1999.90;982.60;;;6.80;1.00;;;;;;4926380;29;20051;-85
2023/03/29 00:29:59;;;;;;;1999.90;821.58;;;8.00;1.00;;;;;;4925556;29;20497;-84
2023/03/29 00:32:25;;;;;;;1999.90;981.78;;;6.10;1.00;;;;;;4934485;29;20047;-83
2023/03/29 00:34:51;;;;;;;1999.90;395.70;;;6.80;1.00;;;;;;4931883;29;20047;-87
2023/03/29 00:37:19;;;;;;;1999.90;896.35;;;5.50;1.00;;;;;;4928657;29;20055;-82
2023/03/29 00:39:45;;;;;;;1999.90;906.08;;;6.50;1.00;;;;;;4932807;29;20047;-84
2023/03/29 00:42:14;;;;;;;1999.90;943.90;;;6.80;1.00;;;;;;4936940;29;20055;-84
2023/03/29 00:45:00;;;;;;;1999.90;999.90;;;7.10;1.00;;;;;;4931844;28;20048;-83
2023/03/29 00:47:38;;;;;;;1999.90;999.90;;;6.80;1.00;;;;;;4952028;28;20087;-85
2023/03/29 00:50:29;;;;;;;1999.90;999.90;;;6.80;1.00;;;;;;4922475;29;20051;-83
2023/03/29 00:53:20;;;;;;;1999.90;999.90;;;6.80;1.00;;;;;;4933186;29;20048;-82
2023/03/29 00:56:12;;;;;;;1999.90;999.90;;;6.60;1.00;;;;;;4940477;29;20048;-85
2023/03/29 00:58:58;;;;;;;1999.90;999.90;;;6.80;1.00;;;;;;4923056;29;20047;-83
2023/03/29 01:01:49;;;;;;;1999.90;999.90;;;8.20;1.00;;;;;;4944666;29;20287;-83
2023/03/29 01:04:22;;;;;;;1999.90;654.92;;;7.10;1.00;;;;;;4922045;29;20066;-83
2023/03/29 01:07:06;;;;;;;1999.90;999.90;;;7.00;1.00;;;;;;4951749;28;20055;-82
2023/03/29 01:09:36;;;;;;;1999.90;999.90;;;5.90;1.00;;;;;;4940238;28;20179;-82
2023/03/29 01:12:18;;;;;;;1999.90;999.90;;;7.10;1.00;;;;;;4935180;29;20188;-82
2023/03/29 01:15:01;;;;;;;1999.90;999.90;;;7.00;1.00;;;;;;4957425;28;20043;-82
2023/03/29 01:17:30;;;;;;;1999.90;860.35;;;6.20;1.00;;;;;;4941815;28;20055;-83
2023/03/29 01:20:09;;;;;;;1999.90;950.10;;;7.00;1.00;;;;;;4918728;29;20052;-82
2023/03/29 01:22:56;;;;;;;1999.90;999.90;;;7.20;1.00;;;;;;4925025;29;20085;-83
2023/03/29 01:25:46;;;;;;;1999.90;739.08;;;7.20;1.00;;;;;;4947818;29;20455;-83
2023/03/29 01:28:20;;;;;;;1999.90;756.95;;;6.90;1.00;;;;;;4946872;29;20055;-83
2023/03/29 01:30:50;;;;;;;1999.90;828.22;;;8.40;1.00;;;;;;4940827;29;20055;-83
2023/03/29 01:33:26;;;;;;;1999.90;999.90;;;8.70;1.00;;;;;;4931661;29;20060;-83
2023/03/29 01:35:58;;;;;;;1999.90;981.20;;;7.00;99.90;;;;;;4918146;29;20501;-83
2023/03/29 01:38:35;;;;;;;1999.90;999.90;;;6.50;1.00;;;;;;4930957;29;20571;-83
2023/03/29 01:41:02;;;;;;;1999.90;843.20;;;7.00;1.00;;;;;;4926614;28;20091;-83
2023/03/29 01:43:37;;;;;;;1999.90;937.50;;;6.60;1.00;;;;;;4937646;29;20115;-83
2023/03/29 01:46:10;;;;;;;1999.90;999.90;;;7.00;1.00;;;;;;4954994;29;20127;-83
2023/03/29 01:48:42;;;;;;;1999.90;819.63;;;7.30;1.00;;;;;;4950292;28;20061;-83
2023/03/29 01:51:15;;;;;;;1999.90;999.90;;;7.00;1.00;;;;;;4933540;29;20043;-83
2023/03/29 01:53:50;;;;;;;1999.90;741.40;;;8.10;1.00;;;;;;4927914;29;20051;-83
2023/03/29 01:56:21;;;;;;;1999.90;766.40;;;7.00;1.00;;;;;;4925708;29;20067;-84
2023/03/29 01:58:52;;;;;;;1999.90;999.90;;;7.00;1.00;;;;;;4936548;29;20054;-85
2023/03/29 02:01:22;;;;;;;1999.90;539.97;;;7.00;1.00;;;;;;4936905;29;20059;-88
2023/03/29 02:03:53;;;;;;;1999.90;869.88;;;5.40;1.00;;;;;;4935045;29;20047;-84
2023/03/29 02:06:23;;;;;;;1999.90;999.90;;;7.70;1.00;;;;;;4936419;29;20040;-86
2023/03/29 02:08:51;;;;;;;1999.90;849.65;;;6.10;1.00;;;;;;4931057;29;20378;-84
2023/03/29 02:11:18;;;;;;;;;;;7.00;1.00;;;;;;4917650;29;20058;-84
2023/03/29 02:13:44;;;;;;;1999.90;999.90;;;;;;;;;;4921500;29;19922;-84
2023/03/29 02:16:12;;;;;;;1999.90;999.90;;;8.20;1.00;;;;;;4945963;29;20075;-84
2023/03/29 02:18:40;;;;;;;1999.90;644.22;;;7.00;1.00;;;;;;4936430;29;20059;-85
2023/03/29 02:21:07;;;;;;;1999.90;999.90;;;7.00;1.00;;;;;;4935316;29;20098;-84
2023/03/29 02:23:39;;;;;;;1999.90;790.25;;;7.80;1.00;;;;;;4918115;29;20058;-84
2023/03/29 02:26:07;;;;;;;1999.90;859.28;;;7.00;1.00;;;;;;4929347;29;20042;-84
2023/03/29 02:28:34;;;;;;;1999.90;999.90;;;6.50;1.00;;;;;;4916109;29;20516;-84
2023/03/29 02:31:21;;;;;;;1999.90;999.90;;;7.80;1.00;;;;;;4937746;29;20126;-84
2023/03/29 02:33:59;;;;;;;1999.90;999.90;;;7.10;1.00;;;;;;4945619;29;20059;-83
2023/03/29 02:36:45;;;;;;;1999.90;999.90;;;8.80;1.00;;;;;;4947854;29;20058;-83
2023/03/29 02:39:14;;;;;;;1999.90;999.90;;;8.40;1.00;;;;;;4943535;28;20055;-84
2023/03/29 02:41:44;;;;;;;1999.90;999.90;;;7.50;1.00;;;;;;4915970;29;20048;-84
2023/03/29 02:44:14;;;;;;;1999.90;999.90;;;9.50;1.00;;;;;;4916879;29;20055;-87
2023/03/29 02:46:42;;;;;;;1999.90;999.90;;;;;;;;;;4933123;29;20426;-83
2023/03/29 02:49:09;;;;;;;1999.90;675.15;;;6.30;1.00;;;;;;4929783;29;20075;-85
2023/03/29 02:51:37;;;;;;;1999.90;999.90;;;8.50;1.00;;;;;;4938124;28;20059;-83
2023/03/29 02:54:08;;;;;;;1999.90;999.90;;;7.10;1.00;;;;;;4946453;29;20097;-83
2023/03/29 02:56:42;;;;;;;1999.90;999.90;;;7.20;1.00;;;;;;4932782;29;20044;-84
2023/03/29 02:59:08;;;;;;;1999.90;999.90;;;7.10;99.90;;;;;;4932392;28;20047;-85
2023/03/29 03:01:35;;;;;;;1999.90;999.90;;;6.20;1.00;;;;;;4916334;29;20457;-84
2023/03/29 03:04:02;;;;;;;1999.90;999.90;;;7.10;1.00;;;;;;4916334;29;20505;-84
2023/03/29 03:06:28;;;;;;;1999.90;999.90;;;9.20;1.00;;;;;;4925307;29;20122;-83
2023/03/29 03:08:54;;;;;;;1999.90;999.90;;;7.90;1.00;;;;;;4935782;29;20492;-84
2023/03/29 03:11:20;;;;;;;1999.90;999.03;;;8.50;1.00;;;;;;4934869;29;20050;-83
2023/03/29 03:13:46;;;;;;;1999.90;928.80;;;7.20;99.90;;;;;;4943641;29;20110;-84
2023/03/29 03:16:12;;;;;;;1999.90;645.80;;;7.30;1.00;;;;;;4950414;29;20119;-84
2023/03/29 03:18:37;;;;;;;1999.90;596.97;;;7.20;1.00;;;;;;4954663;28;20055;-85
2023/03/29 03:21:03;;;;;;;1999.90;993.97;;;7.20;1.00;;;;;;4953593;29;20570;-84
2023/03/29 03:23:29;;;;;;;1999.90;680.63;;;7.20;1.00;;;;;;4947935;29;20043;-85
2023/03/29 03:25:55;;;;;;;1999.90;999.90;;;7.70;1.00;;;;;;4920670;29;20118;-84
2023/03/29 03:28:23;;;;;;;1999.90;999.90;;;7.20;99.90;;;;;;4938291;29;20461;-84
2023/03/29 03:30:49;;;;;;;1999.90;894.83;;;8.60;1.00;;;;;;4930052;29;20118;-84
2023/03/29 03:33:15;;;;;;;1999.90;995.38;;;7.00;1.00;;;;;;4933512;29;20041;-84
2023/03/29 03:35:41;;;;;;;1999.90;999.90;;;8.20;1.00;;;;;;4949653;29;20054;-84
2023/03/29 03:38:07;;;;;;;1863.72;252.38;;;7.20;1.00;;;;;;4951437;29;20400;-84
2023/03/29 03:40:33;;;;;;;1999.90;831.38;;;5.60;1.00;;;;;;4934554;29;20397;-84
2023/03/29 03:42:59;;;;;;;1999.90;624.63;;;;;;;;;;4935062;29;20079;-83
2023/03/29 03:45:25;;;;;;;1999.90;999.90;;;7.30;99.90;;;;;;4915621;29;20051;-84
2023/03/29 03:47:51;;;;;;;1999.90;987.47;;;7.30;99.90;;;;;;4920588;29;20183;-84
2023/03/29 03:50:17;;;;;;;1999.90;727.75;;;4.20;1.00;;;;;;4924767;29;20130;-87
2023/03/29 03:52:43;;;;;;;1999.90;739.22;;;7.30;1.00;;;;;;4932565;29;20562;-84
2023/03/29 03:55:10;;;;;;;1999.90;999.90;;;7.30;1.00;;;;;;4947874;29;20397;-84
2023/03/29 03:57:36;;;;;;;1999.90;949.70;;;7.30;99.90;;;;;;4928576;28;20047;-84
2023/03/29 04:00:18;;;;;;;1999.90;999.90;;;6.60;1.00;;;;;;4932165;28;20059;-84
2023/03/29 04:02:46;;;;;;;1999.90;975.35;;;7.10;1.00;;;;;;4920000;29;20052;-89
2023/03/29 04:05:11;;;;;;;1999.90;786.08;;;7.40;99.90;;;;;;4930492;29;20195;-86
2023/03/29 04:07:37;;;;;;;1999.90;999.90;;;6.60;1.00;;;;;;4923994;29;20138;-83
2023/03/29 04:10:05;;;;;;;1999.90;999.90;;;7.10;1.00;;;;;;4931764;29;20047;-84
2023/03/29 04:12:31;;;;;;;1999.90;967.67;;;8.30;99.90;;;;;;4923699;28;20059;-83
2023/03/29 04:14:56;;;;;;;1999.90;999.90;;;7.40;1.00;;;;;;4930863;29;20385;-82
2023/03/29 04:17:22;;;;;;;1999.90;794.83;;;9.10;1.00;;;;;;4934970;29;20051;-83
2023/03/29 04:19:48;;;;;;;1999.90;669.83;;;7.30;1.00;;;;;;4936810;29;20035;-83
2023/03/29 04:22:13;;;;;;;1999.90;999.90;;;6.70;1.00;;;;;;4932325;29;20481;-83
2023/03/29 04:24:39;;;;;;;1989.82;492.85;;;6.50;1.00;;;;;;4934428;29;20044;-83
2023/03/29 04:27:05;;;;;;;1999.90;909.50;;;6.00;1.00;;;;;;4930068;29;20039;-83
2023/03/29 04:29:30;;;;;;;1999.90;999.90;;;7.30;1.00;;;;;;4935051;29;20044;-84
2023/03/29 04:31:56;;;;;;;1999.90;999.90;;;7.40;99.90;;;;;;4930699;29;20127;-83
2023/03/29 04:34:22;;;;;;;1999.90;999.90;;;7.50;99.90;;;;;;4934400;29;20032;-82
2023/03/29 04:36:51;;;;;;;1999.90;999.90;;;;;;;;;;4930004;28;20490;-83
2023/03/29 04:39:16;;;;;;;1999.90;999.90;;;7.50;99.90;;;;;;4932370;29;20048;-88
2023/03/29 04:41:43;;;;;;;1999.90;999.90;;;10.50;1.00;;;;;;4938839;29;20074;-83
2023/03/29 04:44:09;;;;;;;1999.90;980.55;;;7.50;1.00;;;;;;4926197;29;20069;-84
2023/03/29 04:46:37;;;;;;;1999.90;740.70;;;8.10;99.90;;;;;;4930755;29;20039;-83
2023/03/29 04:49:04;;;;;;;1999.90;842.38;;;7.50;99.90;;;;;;4937465;29;20101;-83
2023/03/29 04:51:30;;;;;;;1999.90;999.90;;;7.50;99.90;;;;;;4937226;29;20087;-83
2023/03/29 04:53:56;;;;;;;1999.90;999.90;;;7.50;1.00;;;;;;4937983;29;20371;-84
2023/03/29 04:56:22;;;;;;;1999.90;999.90;;;7.50;1.00;;;;;;4937307;29;20484;-84
2023/03/29 04:58:48;;;;;;;1999.90;999.90;;;5.90;1.00;;;;;;4920527;29;20520;-83
2023/03/29 05:01:14;;;;;;;1999.90;999.90;;;8.60;1.00;;;;;;4932743;29;20127;-83
2023/03/29 05:03:40;;;;;;;1999.90;999.90;;;6.70;1.00;;;;;;4939291;29;20083;-84
2023/03/29 05:06:08;;;;;;;1999.90;998.13;;;7.60;99.90;;;;;;4937063;29;20508;-84
2023/03/29 05:08:37;;;;;;;1999.90;999.90;;;7.50;99.90;;;;;;4931917;29;20070;-83
2023/03/29 05:11:08;;;;;;;1999.90;929.58;;;6.40;1.00;;;;;;4930442;29;20060;-83
2023/03/29 05:13:34;;;;;;;1999.90;999.90;;;7.60;99.90;;;;;;4935546;29;20107;-83
2023/03/29 05:16:00;;;;;;;1999.90;999.90;;;9.40;1.00;;;;;;4935935;29;20047;-83
2023/03/29 05:18:26;;;;;;;1999.90;999.90;;;7.90;1.00;;;;;;4936661;29;20567;-83
2023/03/29 05:20:52;;;;;;;1999.90;999.90;;;8.00;1.00;;;;;;4934714;29;20458;-83
2023/03/29 05:23:19;;;;;;;1999.90;800.17;;;8.40;99.90;;;;;;4932566;29;20056;-83
2023/03/29 05:25:49;;;;;;;1999.90;918.22;;;5.70;1.00;;;;;;4937933;29;21472;-84
2023/03/29 05:28:15;;;;;;;1999.90;999.90;;;8.30;99.90;;;;;;4955995;29;20073;-84
2023/03/29 05:30:41;;;;;;;1999.90;999.90;;;;;;;;;;4942032;29;20052;-90
2023/03/29 05:33:07;;;;;;;1999.90;999.90;;;8.80;1.00;;;;;;4940515;29;20043;-84
2023/03/29 05:35:34;;;;;;;1999.90;761.40;;;7.70;1.00;;;;;;4932404;29;20056;-86
2023/03/29 05:38:03;;;;;;;1999.90;720.93;;;7.60;1.00;;;;;;4926433;29;20039;-86
2023/03/29 05:40:30;;;;;;;1999.90;914.05;;;8.30;1.00;;;;;;4956383;28;20047;-84
2023/03/29 05:42:56;;;;;;;1999.90;999.90;;;7.90;66.00;;;;;;4950209;28;20571;-84
2023/03/29 05:45:23;;;;;;;1999.90;441.25;;;7.50;21.80;;;;;;4927738;29;20075;-82
2023/03/29 05:47:49;;;;;;;1999.90;729.35;;;7.80;99.90;;;;;;4938308;29;20051;-83
2023/03/29 05:50:15;;;;;;;1999.90;912.13;;;7.50;99.90;;;;;;4940162;28;20456;-89
2023/03/29 05:52:41;;;;;;;1999.90;888.85;;;;;;;;;;4937041;29;20195;-84
2023/03/29 05:55:08;;;;;;;1999.90;499.17;;;8.10;99.90;;;;;;4949795;29;20047;-84
2023/03/29 05:57:37;;;;;;;1999.90;999.90;;;7.50;99.90;;;;;;4955051;29;20047;-84
2023/03/29 06:00:22;;;;;;;1999.90;999.90;;;8.60;99.90;;;;;;4918305;29;20481;-84
2023/03/29 06:02:49;;;;;;;1999.90;999.90;;;8.90;99.90;;;;;;4927508;29;20400;-85
2023/03/29 06:05:15;;;;;;;1999.90;828.33;;;6.40;1.00;;;;;;4952581;29;20054;-84
2023/03/29 06:07:41;;;;;;;1999.90;999.90;;;8.00;99.90;;;;;;4949801;28;20500;-84
2023/03/29 06:10:08;;;;;;;1999.90;999.90;;;7.00;1.20;;;;;;4917349;29;20056;-85
2023/03/29 06:12:34;;;;;;;1999.90;999.90;;;7.50;1.00;;;;;;4917920;29;20056;-84
2023/03/29 06:15:03;;;;;;;1999.90;472.80;;;11.60;99.90;;;;;;4916739;29;20066;-83
2023/03/29 06:17:30;;;;;;;1999.90;227.93;;;7.50;92.90;;;;;;4921128;29;20106;-84
2023/03/29 06:19:56;;;;;;;1999.90;999.90;;;6.30;99.90;;;;;;4955375;28;20059;-84
2023/03/29 06:22:22;;;;;;;1999.90;646.03;;;8.10;99.90;;;;;;4956048;28;20047;-84
2023/03/29 06:24:48;;;;;;;1999.90;999.90;;;7.00;99.90;;;;;;4955543;29;20051;-84
2023/03/29 06:27:14;;;;;;;1999.90;999.90;;;7.50;99.90;;;;;;4952679;29;20055;-85
2023/03/29 06:29:40;;;;;;;1999.90;999.90;;;8.10;4.20;;;;;;4926191;29;20480;-84
2023/03/29 06:32:06;;;;;;;1999.90;999.90;;;7.50;1.00;;;;;;4936356;29;20134;-82
2023/03/29 06:34:31;;;;;;;1999.90;999.90;;;7.60;16.80;;;;;;4936574;29;20051;-81
2023/03/29 06:36:57;;;;;;;1753.75;770.25;;;8.00;56.90;;;;;;4936215;29;20044;-84
2023/03/29 06:39:24;;;;;;;1999.90;999.90;;;7.70;99.90;;;;;;4948179;29;20051;-84
2023/03/29 06:41:50;;;;;;;1999.90;999.90;;;6.90;99.90;;;;;;4947300;28;20126;-81
2023/03/29 06:44:16;;;;;;;1999.90;999.90;;;8.10;99.90;;;;;;4955525;29;20142;-81
2023/03/29 06:46:42;;;;;;;1999.90;999.90;;;7.90;99.90;;;;;;4954303;28;20047;-84
2023/03/29 06:49:08;;;;;;;1999.90;999.90;;;7.70;99.90;;;;;;4940376;28;20043;-84
2023/03/29 06:51:33;;;;;;;1999.90;999.90;;;7.70;99.90;;;;;;4916289;29;20055;-85
2023/03/29 06:53:59;;;;;;;1999.90;814.35;;;5.90;99.90;;;;;;4917123;29;20107;-84
2023/03/29 06:56:25;;;;;;;1999.90;999.90;;;8.60;99.90;;;;;;4921677;29;20040;-84
2023/03/29 06:58:51;;;;;;;1999.90;999.90;;;;;;;;;;4936624;29;20097;-85
2023/03/29 07:01:17;;;;;;;1952.43;585.22;;;7.70;99.90;;;;;;4915299;29;20063;-84
2023/03/29 07:03:44;;;;;;;1999.90;999.90;;;7.80;99.90;;;;;;4915658;29;20048;-85
2023/03/29 07:06:11;;;;;;;1999.90;999.90;;;7.80;99.90;;;;;;4916169;29;20052;-84
2023/03/29 07:08:42;;;;;;;1999.90;999.90;;;7.80;99.90;;;;;;4915247;29;20083;-89
2023/03/29 07:11:12;;;;;;;1999.90;290.40;;;8.50;99.90;;;;;;4953702;29;20055;-85
2023/03/29 07:13:41;;;;;;;1999.90;999.90;;;7.80;99.90;;;;;;4953991;29;20110;-85
2023/03/29 07:16:11;;;;;;;1999.90;999.90;;;8.60;99.90;;;;;;4953639;29;20047;-84
2023/03/29 07:18:38;;;;;;;1999.90;999.90;;;8.20;99.90;;;;;;4954968;28;20059;-83
2023/03/29 07:21:05;;;;;;;1999.90;999.90;;;7.60;16.90;;;;;;4933344;29;20460;-84
2023/03/29 07:23:31;;;;;;;1999.90;999.90;;;;;;;;;;4954750;28;20047;-83
2023/03/29 07:25:57;;;;;;;1536.40;163.75;;;;;;;;;;4953468;29;20047;-83
2023/03/29 07:28:23;;;;;;;1999.40;608.50;;;8.10;1.00;;;;;;4955022;29;20055;-83
2023/03/29 07:30:48;;;;;;;1999.90;999.90;;;8.40;99.90;;;;;;4947337;28;20488;-84
2023/03/29 07:33:15;;;;;;;1999.90;999.90;;;;;;;;;;4953662;29;20082;-83
2023/03/29 07:35:42;;;;;;;1999.90;999.90;;;8.20;99.90;;;;;;4953996;29;20118;-83
2023/03/29 07:38:08;;;;;;;1999.90;999.90;;;8.40;99.90;;;;;;4937857;29;20133;-83
2023/03/29 07:40:34;;;;;;;1999.90;999.90;;;8.90;52.00;;;;;;4949642;28;20051;-83
2023/03/29 07:43:01;;;;;;;1999.90;450.77;;;8.80;91.50;;;;;;4952921;29;20051;-84
2023/03/29 07:45:28;;;;;;;1999.90;999.90;;;8.40;17.90;;;;;;4949414;28;20052;-84
2023/03/29 07:47:58;;;;;;;1999.90;822.50;;;7.10;23.20;;;;;;4937046;29;20051;-84
2023/03/29 07:50:25;;;;;;;1999.90;999.90;;;8.30;1.00;;;;;;4949266;29;20048;-84
2023/03/29 07:52:51;;;;;;;1999.90;833.60;;;;;;;;;;4953504;29;20055;-85
2023/03/29 07:55:17;;;;;;;1999.90;999.90;;;8.40;1.00;;;;;;4952773;28;20047;-85
2023/03/29 07:57:43;;;;;;;1999.90;760.65;;;;;;;;;;4953396;28;20511;-83
2023/03/29 08:00:14;;;;;;;1999.90;550.28;;;8.10;99.90;;;;;;4934798;29;20118;-83
2023/03/29 08:02:49;;;;;;;1999.90;999.90;;;8.50;99.90;;;;;;4940998;29;20058;-85
2023/03/29 08:05:16;;;;;;;1999.90;999.90;;;8.50;99.90;;;;;;4919476;29;20048;-83
2023/03/29 08:07:43;;;;;;;1999.90;999.90;;;8.60;99.90;;;;;;4948899;29;20055;-84
2023/03/29 08:10:17;;;;;;;1999.90;999.90;;;8.60;99.90;;;;;;4950262;29;20113;-85
2023/03/29 08:12:44;;;;;;;1906.78;786.17;;;8.60;99.90;;;;;;4936267;29;20054;-83
2023/03/29 08:15:10;;;;;;;1999.90;999.90;;;10.10;99.90;;;;;;4935353;28;20486;-84
2023/03/29 08:17:36;;;;;;;1725.18;596.28;;;9.30;99.90;;;;;;4914901;29;20056;-83
2023/03/29 08:20:04;;;;;;;1999.90;999.90;;;8.20;99.90;;;;;;4915506;29;20126;-83
2023/03/29 08:22:33;;;;;;;1999.90;999.90;;;8.80;99.90;;;;;;4925766;29;20043;-83
2023/03/29 08:24:59;;;;;;;1999.90;853.78;;;;;;;;;;4930078;29;20075;-86
2023/03/29 08:27:25;;;;;;;1999.90;999.90;;;8.90;99.90;;;;;;4915387;29;20052;-83
2023/03/29 08:29:51;;;;;;;1999.90;999.90;;;8.90;99.90;;;;;;4923555;29;20489;-83
2023/03/29 08:32:17;;;;;;;1999.90;508.73;;;9.00;99.90;;;;;;4932236;29;20143;-83
2023/03/29 08:34:43;;;;;;;1999.90;999.90;;;;;;;;;;4937298;29;20048;-83
2023/03/29 08:37:09;;;;;;;1999.90;999.90;;;8.60;99.90;;;;;;4953507;29;20043;-83
2023/03/29 08:39:36;;;;;;;1999.90;588.42;;;10.10;99.90;;;;;;4954020;28;20079;-82
2023/03/29 08:42:24;;;;;;;1697.70;191.00;;;9.40;73.10;;;;;;4952944;28;20051;-81
2023/03/29 08:44:59;;;;;;;1999.90;292.08;;;9.60;1.00;;;;;;4946706;28;20055;-81
2023/03/29 08:47:55;;;;;;;1999.90;538.58;;;10.10;1.00;;;;;;4941400;29;20067;-82
2023/03/29 08:50:41;;;;;;;1999.90;999.90;;;10.40;1.00;;;;;;4914530;29;20052;-81
2023/03/29 08:53:15;;;;;;;1999.90;807.60;;;11.10;1.00;;;;;;4914409;29;20062;-81
2023/03/29 08:55:49;;;;;;;1772.28;327.77;;;11.60;99.90;;;;;;4914596;29;20076;-84
2023/03/29 08:58:19;;;;;;;1999.90;806.80;;;11.00;99.90;;;;;;4915015;29;20095;-81
2023/03/29 09:00:56;;;;;;;1394.78;367.40;;;10.80;99.90;;;;;;4898996;29;20123;-81
2023/03/29 09:03:25;;;;;;;1999.90;469.98;;;10.70;99.90;;;;;;4915255;29;20047;-82
2023/03/29 09:06:07;;;;;;;1999.90;513.70;;;10.70;99.90;;;;;;4924502;29;20047;-82
2023/03/29 09:08:41;;;;;;;1999.90;999.90;;;10.70;99.90;;;;;;4915336;29;20142;-84
2023/03/29 09:11:38;;;;;;;1999.90;999.90;;;10.70;99.90;;;;;;4914259;29;20092;-81
2023/03/29 09:14:27;;;;;;;1999.90;390.95;;;12.10;99.90;;;;;;4915552;29;20138;-82
2023/03/29 09:17:18;;;;;;;1672.07;384.95;;;10.70;99.90;;;;;;4931562;29;20057;-81
2023/03/29 09:19:50;;;;;;;1999.90;999.90;;;10.10;99.90;;;;;;4949693;29;20423;-82
2023/03/29 09:22:37;;;;;;;1848.75;434.60;;;11.00;99.90;;;;;;4915050;29;20115;-81
2023/03/29 09:25:09;;;;;;;1999.90;999.90;;;11.00;99.90;;;;;;4900867;29;20512;-84
2023/03/29 09:27:50;;;;;;;1811.55;792.80;;;11.00;99.90;;;;;;4942951;29;20087;-81
2023/03/29 09:30:24;;;;;;;1868.85;797.65;;;11.00;99.90;;;;;;4952856;28;20055;-81
2023/03/29 09:32:57;;;;;;;1256.30;171.18;;;10.80;99.90;;;;;;4957187;28;20137;-83
2023/03/29 09:35:46;;;;;;;1676.70;179.45;;;11.20;99.90;;;;;;4944159;28;20070;-81
2023/03/29 09:38:14;;;;;;;1584.50;577.58;;;11.30;99.90;;;;;;4923688;29;20060;-81
2023/03/29 09:40:52;;;;;;;1607.88;218.35;;;11.20;99.90;;;;;;4947061;29;20396;-85
2023/03/29 09:43:25;;;;;;;;;;;11.40;99.90;;;;;;4956882;28;20090;-86
2023/03/29 09:45:55;;;;;;;1999.90;999.90;;;11.40;99.90;;;;;;4956581;28;19926;-84
2023/03/29 09:48:22;;;;;;;1308.78;173.98;;;11.40;99.90;;;;;;4956450;28;20062;-84
2023/03/29 09:50:50;;;;;;;1392.83;189.93;;;11.50;99.90;;;;;;4951886;29;20126;-83
2023/03/29 09:53:17;;;;;;;1675.03;588.13;;;11.50;99.90;;;;;;4939398;29;20287;-83
2023/03/29 09:55:46;;;;;;;1705.93;401.90;;;11.80;99.90;;;;;;4955932;28;20075;-86
2023/03/29 09:58:24;;;;;;;1999.90;999.90;;;11.60;99.90;;;;;;4948127;28;20048;-83
2023/03/29 10:00:51;;;;;;;1622.88;579.25;;;10.90;99.90;;;;;;4935921;29;20109;-83
2023/03/29 10:03:23;;;;;;;1819.80;787.88;;;12.50;99.90;;;;;;4956311;28;20051;-83
2023/03/29 10:05:53;;;;;;;1637.10;568.55;;;11.70;99.90;;;;;;4923190;28;20067;-83
2023/03/29 10:08:26;;;;;;;1101.43;135.73;;;11.70;99.90;;;;;;4916756;29;20048;-83
2023/03/29 10:10:51;;;;;;;1425.50;149.73;;;11.80;99.90;;;;;;4931517;29;20113;-84
2023/03/29 10:13:26;;;;;;;1929.85;831.40;;;11.80;99.90;;;;;;4919006;28;20048;-81
2023/03/29 10:16:06;;;;;;;1999.90;999.90;;;11.90;99.90;;;;;;4918424;29;20048;-81
2023/03/29 10:18:37;;;;;;;1999.90;999.90;;;12.00;99.90;;;;;;4918317;29;20490;-81
2023/03/29 10:21:03;;;;;;;1999.90;999.90;;;12.00;99.90;;;;;;4918998;29;20486;-80
2023/03/29 10:23:32;;;;;;;1999.90;999.90;;;12.00;99.90;;;;;;4917139;29;20135;-82
2023/03/29 10:25:58;;;;;;;1999.90;999.90;;;12.00;99.90;;;;;;4922429;29;20484;-82
2023/03/29 10:28:26;;;;;;;1999.90;999.90;;;12.00;99.90;;;;;;4916719;29;20489;-83
2023/03/29 10:30:57;;;;;;;1999.90;999.90;;;12.10;99.90;;;;;;4950170;29;20051;-83
2023/03/29 10:33:26;;;;;;;1999.90;999.90;;;12.10;99.90;;;;;;4955515;28;20477;-84
2023/03/29 10:35:56;;;;;;;1999.90;999.90;;;12.20;99.90;;;;;;4950072;28;20406;-82
2023/03/29 10:38:26;;;;;;;1999.90;999.90;;;12.30;99.90;;;;;;4951799;28;20051;-83
2023/03/29 10:40:54;;;;;;;1999.90;999.90;;;12.30;99.90;;;;;;4916219;29;20055;-82
2023/03/29 10:43:25;;;;;;;1999.90;999.90;;;12.50;99.90;;;;;;4944196;29;20101;-82
2023/03/29 10:45:53;;;;;;;1999.90;999.90;;;12.50;99.90;;;;;;4932543;28;20040;-82
2023/03/29 10:48:27;;;;;;;1999.90;999.90;;;12.70;99.90;;;;;;4913386;29;20047;-83
2023/03/29 10:50:57;;;;;;;1999.90;999.90;;;12.90;99.90;;;;;;4925722;29;20111;-84
2023/03/29 10:53:28;;;;;;;1999.90;999.90;;;13.20;99.90;;;;;;4933614;29;20452;-81
2023/03/29 10:56:18;;;;;;;1999.90;999.90;;;13.20;99.90;;;;;;4917111;29;20084;-85
2023/03/29 10:59:13;;;;;;;1999.90;999.90;;;13.20;99.90;;;;;;4943959;29;20055;-86
2023/03/29 11:02:14;;;;;;;1999.90;999.90;;;13.60;99.90;;;;;;4930684;29;20043;-84
2023/03/29 11:05:09;;;;;;;1999.90;999.90;;;14.20;99.90;;;;;;4931330;28;20484;-81
2023/03/29 11:08:11;;;;;;;1999.90;999.90;;;14.40;99.90;;;;;;4924542;29;20048;-83
2023/03/29 11:11:04;;;;;;;1999.90;999.90;;;14.90;99.90;;;;;;4927189;29;20058;-83
2023/03/29 11:14:07;;;;;;;1999.90;999.90;;;15.00;99.90;;;;;;4922241;29;20476;-82
2023/03/29 11:16:52;;;;;;;1999.90;999.90;;;15.10;99.90;;;;;;4916059;29;20060;-83
2023/03/29 11:19:52;;;;;;;1999.90;999.90;;;15.20;99.90;;;;;;4936298;29;20055;-81
2023/03/29 11:22:42;;;;;;;1999.90;999.90;;;15.10;99.90;;;;;;4928684;29;20043;-83
2023/03/29 11:25:24;;;;;;;1999.90;999.90;;;14.90;99.90;;;;;;4932428;29;20436;-81
2023/03/29 11:28:13;;;;;;;1999.90;999.90;;;14.60;99.90;;;;;;4935337;29;20048;-81
2023/03/29 11:30:45;;;;;;;1999.90;999.90;;;14.40;99.90;;;;;;4924880;29;20051;-89
2023/03/29 11:33:23;;;;;;;1999.90;999.90;;;14.40;99.90;;;;;;4928905;29;20062;-82
2023/03/29 11:36:03;;;;;;;1999.90;999.90;;;14.70;99.90;;;;;;4936177;29;20488;-82
2023/03/29 11:38:38;;;;;;;1999.90;999.90;;;14.90;99.90;;;;;;4938420;29;20079;-81
2023/03/29 11:41:18;;;;;;;1999.90;999.90;;;15.10;99.90;;;;;;4930383;29;20055;-82
2023/03/29 11:44:08;;;;;;;1999.90;999.90;;;15.30;99.90;;;;;;4938694;29;20241;-82
2023/03/29 11:46:52;;;;;;;1999.90;999.90;;;14.90;99.90;;;;;;4954699;28;20295;-83
2023/03/29 11:49:44;;;;;;;1999.90;999.90;;;15.00;99.90;;;;;;4918911;29;20401;-81
2023/03/29 11:52:18;;;;;;;1999.90;999.90;;;15.00;99.90;;;;;;4918326;29;20122;-84
2023/03/29 11:54:47;;;;;;;1999.90;999.90;;;15.00;99.90;;;;;;4917721;29;20051;-82
2023/03/29 11:57:28;;;;;;;1999.90;999.90;;;15.10;99.90;;;;;;4930477;29;20472;-87
2023/03/29 12:00:00;;;;;;;1999.90;999.90;;;14.90;99.90;;;;;;4942138;29;20046;-83
2023/03/29 12:02:38;;;;;;;1999.90;999.90;;;15.20;99.90;;;;;;4947658;28;20075;-82
2023/03/29 12:05:40;;;;;;;1999.90;999.90;;;15.30;99.90;;;;;;4916881;29;20040;-82
2023/03/29 12:08:20;;;;;;;1999.90;999.90;;;15.20;99.90;;;;;;4948275;29;20122;-82
2023/03/29 12:10:51;;;;;;;1999.90;999.90;;;15.20;99.90;;;;;;4929804;29;20063;-82
2023/03/29 12:13:29;;;;;;;1999.90;999.90;;;15.20;99.90;;;;;;4932956;29;20130;-95
2023/03/29 12:16:16;;;;;;;1999.90;999.90;;;15.60;99.90;;;;;;4938647;29;20404;-82
2023/03/29 12:18:48;;;;;;;1999.90;999.90;;;15.70;99.90;;;;;;4933903;29;20047;-81
2023/03/29 12:21:19;;;;;;;1999.90;999.90;;;16.10;99.90;;;;;;4943993;29;20093;-83
2023/03/29 12:23:46;;;;;;;1999.90;999.90;;;15.80;99.90;;;;;;4952338;28;20056;-82
2023/03/29 12:26:31;;;;;;;1999.90;999.90;;;15.90;99.90;;;;;;4928372;28;20051;-81
2023/03/29 12:29:04;;;;;;;1999.90;999.90;;;15.90;99.90;;;;;;4947733;28;20118;-82
2023/03/29 12:32:01;;;;;;;1999.90;999.90;;;15.90;99.90;;;;;;4915901;29;20103;-87
2023/03/29 12:34:33;;;;;;;1999.90;999.90;;;15.50;99.90;;;;;;4928029;29;20048;-81